Meath Environmental Platform

Observations for Trim Market St

Time AQI Temp °C Hum % Pres Pa CO μg/m³ H₂S μg/m³ NO μg/m³ NO₂ μg/m³ O₃ μg/m³ SO₂ μg/m³ PM1 μg/m³ PM2.5 μg/m³ PM10 μg/m³
Monday 17 August 2026
19:56 2 19.8 77 2,147,483,647 0.09 4.05 1.67 20.89 61.94 0 2.14 4.14 6.95
19:55 2 19.8 77 2,147,483,647 0.08 5.81 1.77 24.52 59.96 0 1.43 3.19 6.36
19:53 2 19.8 77 2,147,483,647 0.09 8.07 1.76 34.3 62.96 0 2.14 3.67 6.36
19:52 2 19.9 77 2,147,483,647 0.08 5.73 1.78 25.62 64.15 0 1.43 3.2 6.95
19:51 2 19.9 77 2,147,483,647 0.06 5.31 1.81 21.99 62.93 0 1.43 3.21 5.77
19:50 2 19.9 77 2,147,483,647 0.07 4.37 1.8 19.04 63.58 0 1.43 3.69 6.94
19:48 2 19.9 77 2,147,483,647 0.21 9.31 1.64 24.92 57.2 0 2.14 3.22 6.94
19:47 2 19.9 76 2,147,483,647 0.23 12.23 1.64 46.76 59.8 0 2.14 3.22 5.77
19:45 2 19.9 76 2,147,483,647 0.16 10.94 1.4 30 63.06 0 2.14 3.72 6.35
19:44 2 19.9 76 2,147,483,647 0.18 12.92 1.46 41.54 62.69 0 0.71 3.72 6.35
19:43 2 19.9 76 2,147,483,647 0.24 9.55 1.42 30.72 61.17 0 2.85 5.16 8.12
19:42 2 19.9 76 2,147,483,647 0.2 12.81 1.33 36.88 62.41 0 2.14 4.69 7.53
19:39 2 20 75 2,147,483,647 0 9.94 1.26 21.45 65.43 0 2.14 3.29 5.74
19:38 2 20 75 2,147,483,647 0 12.39 1.23 40.96 66.27 0 2.85 4.73 7.53
19:37 2 20 75 2,147,483,647 0 10.21 1.23 23.38 68.43 0 2.14 3.31 6.93
19:35 2 20 74 2,147,483,647 0 10.05 1.29 26.86 65.43 0 0.71 3.33 6.33
19:33 2 20.1 74 2,147,483,647 0 11.6 1.28 34.35 68.08 0 1.43 3.35 5.72
19:30 2 20.2 73 2,147,483,647 0 11.08 1.21 19.79 68.05 0 2.14 4.34 6.92
19:25 2 20.4 72 9,034 0 12.63 1.15 28.14 71.01 0 1.43 3.92 6.92
19:24 2 20.5 72 12,003 0 12.77 1.11 21.22 73.03 0 1.43 3.93 6.3